Hales Corners, WI

6:27 AM CST on November 24, 2014 (GMT -0600)
Foxwood Crossing | Change Station
CLOSE
Current Station
Personal Weather Station
Location: Greenfield, WI
Elevation: 830 ft
Nearby Weather Stations
Active Advisory: Winter Weather Advisory

Elev 830 ft 42.96 °N, 88.06 °W | Updated 24 minutes ago

Overcast
Overcast
45.1 °F
Feels Like 45 °F
N
2.0
Wind Variable Wind from West
Gusts 3.0 mph

Today
High -- | Low -- °F
--% Chance of Precip.
Yesterday
High -- | Low -- °F
Precip. -- in
6:55 AM 4:21 PM
Waxing Crescent, 5% visible
Pressure 29.05 in
Visibility 4.0 miles
Clouds Mostly Cloudy 600 ft
Overcast 2900 ft
Windchill 45 °F
Dew Point 44 °F
Humidity 96%
Rainfall 0.04 in
Snow Depth Not available.
UV 0 out of 12
Pollen .10 out of 12
Air Quality Not available.
Flu Activity Not available.
SPECI KMKE 241216Z 24004KT 4SM -DZ BR BKN006 OVC029 08/07 A2905 RMK AO2 P0000 T00780067

More Conditions Fewer Conditions

Pressure 29.05 in
Visibility 4.0 miles
Clouds Mostly Cloudy 600 ft
Overcast 2900 ft
Windchill 45 °F
Dew Point 44 °F
Humidity 96%
Rainfall 0.04 in
Snow Depth Not available.
UV 0 out of 12
Pollen .10 out of 12
Air Quality Not available.
Flu Activity Not available.
SPECI KMKE 241216Z 24004KT 4SM -DZ BR BKN006 OVC029 08/07 A2905 RMK AO2 P0000 T00780067

More Conditions Fewer Conditions

10-Day Weather Forecast

Almanac

Astronomy

Nov. 24, 2014 Rise Set
Actual Time
Civil Twilight
Nautical Twilight
Astronomical Twilight
Moon
Length of Visible Light
Length of Day
Tomorrow will be .
, % of the Moon is Illuminated

Today's Extremes

State Highs State Lows

Community

WunderPhotos

Upload Photos

1,773,319 photos uploaded!

WunderBlogs® & News

Nearby

Air Quality

  Air Quality AQ Index Pollutant
Not available.

Snow Depth

Station Depth Elevation

Earthquake Activity

City Distance Mag. Time & Date
Minimum magnitude displayed is 2.5.

Coastal Water Temperatures

Place Temperature

Nearby Weather Stations